Terminal Aerodrome Forecast
Issued by NWS

Home | Current Version | Previous Version | Text Only | Print | Product List | Glossary On
Versions: 1 2 3 4 5 6 7 8 9 10 11 12 13 14 15 16 17 18 19 20
000
FTUS42 KMHX 191958 AAA
TAFISO
TAF AMD
KISO 191958Z 1920/2018 13005KT 5SM -RA SCT008 BKN015
      TEMPO 1920/1923 4SM SHRA BR BKN010
     FM200200 14012KT 4SM -SHRA BR OVC007
     FM201200 22008KT P6SM VCSH BKN010
     FM201500 23011KT P6SM SCT020
      AMD LTD TO CLD VIS AND WIND=

USA.gov is the U.S. government's official web portal to all federal, state and local government web resources and services.